createdAt,value
2023-03-23T15:59:44.034Z,16.10
2023-03-23T16:02:22.891Z,13.85
2023-03-23T16:04:51.608Z,13.45
2023-03-23T16:07:23.291Z,15.02
2023-03-23T16:09:51.671Z,13.68
2023-03-23T16:12:19.125Z,13.80
2023-03-23T16:14:46.630Z,13.13
2023-03-23T16:17:17.725Z,13.43
2023-03-23T16:19:45.350Z,13.15
2023-03-23T16:22:12.860Z,12.48
2023-03-23T16:24:40.569Z,12.13
2023-03-23T16:27:10.491Z,13.45
2023-03-23T16:29:59.941Z,12.88
2023-03-23T16:32:25.461Z,12.52
2023-03-23T16:34:52.868Z,11.38
2023-03-23T16:37:20.664Z,13.10
2023-03-23T16:39:50.562Z,12.35
2023-03-23T16:42:19.587Z,11.18
2023-03-23T16:44:52.005Z,12.68
2023-03-23T16:47:23.709Z,13.00
2023-03-23T16:52:22.028Z,12.23
2023-03-23T16:54:49.425Z,12.50
2023-03-23T16:57:16.813Z,11.77
2023-03-23T16:59:44.606Z,11.77
2023-03-23T17:02:12.912Z,10.57
2023-03-23T17:04:44.072Z,11.38
2023-03-23T17:07:13.065Z,11.52
2023-03-23T17:09:41.728Z,11.25
2023-03-23T17:12:10.258Z,11.10
2023-03-23T17:14:37.742Z,10.15
2023-03-23T17:17:05.164Z,10.98
2023-03-23T17:19:32.602Z,10.02
2023-03-23T17:22:00.207Z,11.80
2023-03-23T17:24:27.705Z,10.45
2023-03-23T17:26:55.539Z,9.32
2023-03-23T17:29:23.553Z,8.55
2023-03-23T17:31:51.844Z,9.68
2023-03-23T17:34:19.871Z,8.23
2023-03-23T17:36:47.333Z,9.18
2023-03-23T17:39:14.798Z,9.18
2023-03-23T17:41:42.383Z,11.05
2023-03-23T17:44:09.831Z,9.70
2023-03-23T17:46:37.253Z,9.07
2023-03-23T17:49:04.791Z,9.35
2023-03-23T17:51:32.211Z,10.80
2023-03-23T17:53:59.571Z,9.60
2023-03-23T17:56:26.996Z,10.32
2023-03-23T17:58:54.865Z,9.43
2023-03-23T18:01:22.387Z,10.35
2023-03-23T18:03:49.846Z,11.85
2023-03-23T18:06:17.442Z,11.95
2023-03-23T18:08:45.007Z,14.40
2023-03-23T18:11:12.666Z,16.92
2023-03-23T18:13:40.318Z,11.38
2023-03-23T18:16:08.679Z,15.23
2023-03-23T18:18:36.446Z,14.65
2023-03-23T18:21:08.192Z,14.07
2023-03-23T18:23:46.101Z,13.57
2023-03-23T18:26:21.905Z,13.98
2023-03-23T18:28:51.947Z,12.63
2023-03-23T18:31:20.393Z,36.75
2023-03-23T18:33:49.806Z,14.55
2023-03-23T18:36:20.598Z,14.27
2023-03-23T18:38:49.249Z,15.23
2023-03-23T18:41:17.693Z,13.77
2023-03-23T18:43:46.099Z,13.63
2023-03-23T18:46:13.818Z,14.57
2023-03-23T18:48:41.418Z,15.88
2023-03-23T18:51:09.461Z,15.52
2023-03-23T18:53:36.933Z,14.10
2023-03-23T18:56:12.820Z,15.43
2023-03-23T18:58:40.430Z,14.00
2023-03-23T19:01:11.125Z,13.40
2023-03-23T19:03:40.382Z,14.07
2023-03-23T19:06:17.539Z,17.60
2023-03-23T19:08:45.878Z,24.50
2023-03-23T19:11:14.282Z,16.52
2023-03-23T19:13:50.751Z,14.18
2023-03-23T19:16:26.114Z,14.93
2023-03-23T19:18:53.459Z,14.73
2023-03-23T19:21:25.266Z,14.52
2023-03-23T19:23:55.500Z,15.27
2023-03-23T19:26:27.386Z,15.25
2023-03-23T19:29:24.407Z,13.43
2023-03-23T19:31:44.704Z,14.95
2023-03-23T19:34:14.160Z,14.77
2023-03-23T19:36:48.162Z,15.32
2023-03-23T19:39:22.186Z,14.32
2023-03-23T19:41:51.005Z,13.52
2023-03-23T19:44:18.611Z,13.07
2023-03-23T19:46:47.987Z,13.35
2023-03-23T19:49:15.676Z,13.07
2023-03-23T19:51:43.120Z,14.80
2023-03-23T19:54:10.858Z,13.80
2023-03-23T19:56:38.508Z,14.43
2023-03-23T19:59:07.944Z,12.85
2023-03-23T20:01:35.516Z,13.73
2023-03-23T20:04:05.340Z,14.57
2023-03-23T20:06:33.878Z,13.23
2023-03-23T20:09:05.174Z,14.18
2023-03-23T20:11:33.994Z,13.45
2023-03-23T20:14:02.367Z,14.68
2023-03-23T20:16:29.820Z,14.82
2023-03-23T20:19:00.056Z,13.73
2023-03-23T20:21:28.718Z,14.50
2023-03-23T20:23:58.631Z,16.17
2023-03-23T20:26:29.612Z,14.93
2023-03-23T20:28:57.178Z,15.75
2023-03-23T20:31:27.311Z,13.60
2023-03-23T20:34:02.154Z,14.23
2023-03-23T20:36:35.157Z,13.95
2023-03-23T20:39:14.392Z,14.25
2023-03-23T20:41:43.623Z,16.88
2023-03-23T20:44:16.147Z,15.23
2023-03-23T20:46:45.407Z,14.98
2023-03-23T20:49:13.958Z,14.55
2023-03-23T20:51:41.776Z,13.30
2023-03-23T20:54:10.107Z,13.57
2023-03-23T20:56:40.459Z,13.57
2023-03-23T20:59:08.217Z,14.25
2023-03-23T21:01:37.092Z,13.35
2023-03-23T21:04:05.333Z,13.05
2023-03-23T21:06:34.003Z,14.38
2023-03-23T21:09:01.446Z,13.52
2023-03-23T21:11:30.115Z,13.55
2023-03-23T21:13:57.570Z,16.55
2023-03-23T21:16:25.230Z,17.23
2023-03-23T21:18:52.960Z,17.95
2023-03-23T21:21:20.782Z,18.92
2023-03-23T21:23:52.353Z,17.73
2023-03-23T21:26:22.634Z,17.15
2023-03-23T21:28:50.929Z,16.20
2023-03-23T21:31:18.758Z,17.27
2023-03-23T21:33:46.525Z,16.30
2023-03-23T21:36:13.984Z,17.90
2023-03-23T21:38:41.463Z,18.35
2023-03-23T21:41:11.700Z,18.60
2023-03-23T21:43:40.743Z,19.13
2023-03-23T21:46:09.636Z,19.75
2023-03-23T21:48:41.553Z,20.08
2023-03-23T21:51:15.485Z,21.20
2023-03-23T21:53:43.674Z,22.00
2023-03-23T21:56:11.829Z,20.33
2023-03-23T21:58:39.260Z,22.15
2023-03-23T22:01:08.245Z,21.38
2023-03-23T22:03:36.271Z,21.25
2023-03-23T22:06:10.740Z,21.85
2023-03-23T22:08:40.140Z,24.83
2023-03-23T22:11:13.822Z,24.48
2023-03-23T22:13:42.186Z,23.60
2023-03-23T22:16:13.426Z,27.08
2023-03-23T22:18:45.284Z,26.42
2023-03-23T22:21:14.571Z,28.13
2023-03-23T22:23:42.666Z,25.45
2023-03-23T22:26:12.175Z,25.67
2023-03-23T22:28:40.419Z,23.50
2023-03-23T22:31:14.155Z,21.52
2023-03-23T22:33:41.672Z,20.52
2023-03-23T22:36:09.747Z,21.60
2023-03-23T22:38:39.381Z,21.80
2023-03-23T22:41:08.518Z,21.25
2023-03-23T22:43:36.984Z,21.75
2023-03-23T22:46:05.170Z,22.35
2023-03-23T22:48:33.340Z,24.30
2023-03-23T22:51:01.460Z,27.40
2023-03-23T22:53:29.248Z,27.88
2023-03-23T22:55:57.820Z,29.33
2023-03-23T22:58:26.846Z,28.45
2023-03-23T23:01:00.807Z,28.35
2023-03-23T23:03:30.379Z,29.95
2023-03-23T23:05:59.281Z,29.65
2023-03-23T23:08:28.578Z,30.05
2023-03-23T23:10:58.635Z,30.20
2023-03-23T23:13:26.832Z,49.40
2023-03-23T23:15:56.934Z,35.17
2023-03-23T23:18:26.203Z,34.13
2023-03-23T23:20:58.875Z,34.35
2023-03-23T23:23:28.083Z,32.78
2023-03-23T23:25:56.379Z,35.85
2023-03-23T23:28:26.660Z,34.67
2023-03-23T23:30:54.668Z,35.55
2023-03-23T23:33:22.626Z,34.85
2023-03-23T23:35:50.297Z,34.60
2023-03-23T23:38:18.249Z,38.30
2023-03-23T23:40:47.271Z,38.50
2023-03-23T23:43:16.319Z,37.60
2023-03-23T23:45:44.362Z,36.30
2023-03-23T23:48:12.678Z,37.17
2023-03-23T23:50:40.224Z,36.47
2023-03-23T23:53:09.933Z,36.92
2023-03-23T23:55:39.420Z,38.92
2023-03-23T23:58:06.927Z,39.70
